createdAt,value
2023-05-19T00:00:19.685Z,6.66
2023-05-19T00:01:19.719Z,5.94
2023-05-19T00:02:19.765Z,5.67
2023-05-19T00:03:19.960Z,5.41
2023-05-19T00:04:19.827Z,5.83
2023-05-19T00:05:19.974Z,6.10
2023-05-19T00:06:20.023Z,6.04
2023-05-19T00:07:19.970Z,5.89
2023-05-19T00:08:20.051Z,6.54
2023-05-19T00:09:20.061Z,6.24
2023-05-19T00:10:20.171Z,6.14
2023-05-19T00:11:20.143Z,6.26
2023-05-19T00:12:20.214Z,5.99
2023-05-19T00:13:20.204Z,6.82
2023-05-19T00:14:20.207Z,6.42
2023-05-19T00:15:20.201Z,6.48
2023-05-19T00:16:20.290Z,6.41
2023-05-19T00:17:20.257Z,7.11
2023-05-19T00:18:20.317Z,6.27
2023-05-19T00:19:20.402Z,6.18
2023-05-19T00:20:20.356Z,6.02
2023-05-19T00:21:20.293Z,6.29
2023-05-19T00:22:20.292Z,6.09
2023-05-19T00:23:20.335Z,5.83
2023-05-19T00:24:20.328Z,6.03
2023-05-19T00:25:20.331Z,6.70
2023-05-19T00:26:20.302Z,6.59
2023-05-19T00:27:20.337Z,6.21
2023-05-19T00:28:20.379Z,6.19
2023-05-19T00:29:20.459Z,5.90
2023-05-19T00:30:20.424Z,6.41
2023-05-19T00:31:20.456Z,6.47
2023-05-19T00:32:20.425Z,6.13
2023-05-19T00:33:20.425Z,6.39
2023-05-19T00:34:20.402Z,6.33
2023-05-19T00:35:20.377Z,6.68
2023-05-19T00:36:20.382Z,6.98
2023-05-19T00:37:20.349Z,5.99
2023-05-19T00:38:20.381Z,6.82
2023-05-19T00:39:20.392Z,6.55
2023-05-19T00:40:20.389Z,5.85
2023-05-19T00:41:20.343Z,6.29
2023-05-19T00:42:20.327Z,6.15
2023-05-19T00:43:20.343Z,6.29
2023-05-19T00:44:20.382Z,5.90
2023-05-19T00:45:20.338Z,6.60
2023-05-19T00:46:20.415Z,6.42
2023-05-19T00:47:20.297Z,6.67
2023-05-19T00:48:20.300Z,6.07
2023-05-19T00:49:20.283Z,6.77
2023-05-19T00:50:20.292Z,6.68
2023-05-19T00:51:20.266Z,6.34
2023-05-19T00:52:20.260Z,6.36
2023-05-19T00:53:20.248Z,7.03
2023-05-19T00:54:20.209Z,6.10
2023-05-19T00:55:20.324Z,6.56
2023-05-19T00:56:20.213Z,6.43
2023-05-19T00:57:20.243Z,6.44
2023-05-19T00:58:20.223Z,5.75
2023-05-19T00:59:20.211Z,6.31
2023-05-19T01:00:20.208Z,5.95
2023-05-19T01:01:20.249Z,6.40
2023-05-19T01:02:20.239Z,6.58
2023-05-19T01:03:20.358Z,6.60
2023-05-19T01:04:20.159Z,6.66
2023-05-19T01:05:20.186Z,5.61
2023-05-19T01:06:20.213Z,6.00
2023-05-19T01:07:20.244Z,6.40
2023-05-19T01:08:20.321Z,6.65
2023-05-19T01:09:20.312Z,6.15
2023-05-19T01:10:20.413Z,5.90
2023-05-19T01:11:20.405Z,6.77
2023-05-19T01:12:20.464Z,5.99
2023-05-19T01:13:20.512Z,6.65
2023-05-19T01:14:20.550Z,6.18
2023-05-19T01:15:20.585Z,6.49
2023-05-19T01:16:20.675Z,6.02
2023-05-19T01:17:20.675Z,6.75
2023-05-19T01:18:20.670Z,6.37
2023-05-19T01:19:20.857Z,5.94
2023-05-19T01:20:20.656Z,5.83
2023-05-19T01:21:20.683Z,6.16
2023-05-19T01:22:20.698Z,6.01
2023-05-19T01:23:20.689Z,6.59
2023-05-19T01:24:20.657Z,5.73
2023-05-19T01:25:20.708Z,6.53
2023-05-19T01:26:20.692Z,5.77
2023-05-19T01:27:20.621Z,6.13
2023-05-19T01:28:20.649Z,6.54
2023-05-19T01:29:20.603Z,6.19
2023-05-19T01:30:20.649Z,6.14
2023-05-19T01:31:20.640Z,5.88
2023-05-19T01:32:20.688Z,6.50
2023-05-19T01:33:20.599Z,6.62
2023-05-19T01:34:20.606Z,6.42
2023-05-19T01:35:20.580Z,5.74
2023-05-19T01:36:20.627Z,6.21
2023-05-19T01:37:20.570Z,6.01
2023-05-19T01:38:20.535Z,5.81
2023-05-19T01:39:20.553Z,6.02
2023-05-19T01:40:20.628Z,6.25
2023-05-19T01:41:20.560Z,6.06
2023-05-19T01:42:20.545Z,6.06
2023-05-19T01:43:20.569Z,6.14
2023-05-19T01:44:20.543Z,6.54
2023-05-19T01:45:20.555Z,6.89
2023-05-19T01:46:20.505Z,6.40
2023-05-19T01:47:20.485Z,6.15
2023-05-19T01:48:20.543Z,6.26
2023-05-19T01:49:20.517Z,5.56
2023-05-19T01:50:20.511Z,6.73
2023-05-19T01:51:20.530Z,6.39
2023-05-19T01:52:20.456Z,6.85
2023-05-19T01:53:20.461Z,6.38
2023-05-19T01:54:20.433Z,5.89
2023-05-19T01:55:20.501Z,5.70
2023-05-19T01:56:20.469Z,6.09
2023-05-19T01:57:20.451Z,5.80
2023-05-19T01:58:20.442Z,6.47
2023-05-19T01:59:20.409Z,5.85
2023-05-19T02:00:21.327Z,5.69
2023-05-19T02:01:20.439Z,5.64
2023-05-19T02:02:20.449Z,6.18
2023-05-19T02:03:20.403Z,5.88
2023-05-19T02:04:20.443Z,6.03
2023-05-19T02:05:20.360Z,6.66
2023-05-19T02:06:20.424Z,5.55
2023-05-19T02:07:20.406Z,6.04
2023-05-19T02:08:20.421Z,6.16
2023-05-19T02:09:20.457Z,7.07
2023-05-19T02:10:20.487Z,6.59
2023-05-19T02:11:20.504Z,6.61
2023-05-19T02:12:20.539Z,6.46
2023-05-19T02:13:20.552Z,6.91
2023-05-19T02:14:20.615Z,6.45
2023-05-19T02:15:20.681Z,6.01
2023-05-19T02:16:20.867Z,6.03
2023-05-19T02:17:20.745Z,6.70
2023-05-19T02:18:20.801Z,5.95
2023-05-19T02:19:21.009Z,6.13
2023-05-19T02:20:20.877Z,5.95
2023-05-19T02:21:20.898Z,5.55
2023-05-19T02:22:20.874Z,6.33
2023-05-19T02:23:20.911Z,6.23
2023-05-19T02:24:20.925Z,6.77
2023-05-19T02:25:20.951Z,6.12
2023-05-19T02:26:20.957Z,6.07
2023-05-19T02:27:20.951Z,6.71
2023-05-19T02:28:21.002Z,6.40
2023-05-19T02:29:21.080Z,6.48
2023-05-19T02:30:21.083Z,6.52
2023-05-19T02:31:21.164Z,5.74
2023-05-19T02:32:21.142Z,6.81
2023-05-19T02:33:21.133Z,6.06
2023-05-19T02:34:21.192Z,6.10
2023-05-19T02:35:21.179Z,6.63
2023-05-19T02:36:21.206Z,5.94
2023-05-19T02:37:21.194Z,5.87
2023-05-19T02:38:21.169Z,6.02
2023-05-19T02:39:21.198Z,5.76
2023-05-19T02:40:21.188Z,6.07
2023-05-19T02:41:21.146Z,5.94
2023-05-19T02:42:21.155Z,5.92
2023-05-19T02:43:21.165Z,6.43
2023-05-19T02:44:21.116Z,5.55
2023-05-19T02:45:21.206Z,6.11
2023-05-19T02:46:21.150Z,6.30
2023-05-19T02:47:21.248Z,6.66
2023-05-19T02:48:21.213Z,6.12
2023-05-19T02:49:21.256Z,6.60
2023-05-19T02:50:21.223Z,6.61
2023-05-19T02:51:21.285Z,6.70
2023-05-19T02:52:21.237Z,6.42
2023-05-19T02:53:21.227Z,7.03
2023-05-19T02:54:21.231Z,6.17
2023-05-19T02:55:21.234Z,5.78
2023-05-19T02:56:21.213Z,6.61
2023-05-19T02:57:21.250Z,6.67
2023-05-19T02:58:21.180Z,6.46
2023-05-19T02:59:21.176Z,5.99
2023-05-19T03:00:21.234Z,5.78
2023-05-19T03:01:21.351Z,5.79
2023-05-19T03:02:21.298Z,6.00
2023-05-19T03:03:21.363Z,6.66
2023-05-19T03:04:21.312Z,5.97
2023-05-19T03:05:21.745Z,5.97
2023-05-19T03:06:21.424Z,6.06
2023-05-19T03:07:21.496Z,6.14
2023-05-19T03:08:21.599Z,6.36
2023-05-19T03:09:21.618Z,5.71
2023-05-19T03:10:21.670Z,6.56
2023-05-19T03:11:21.680Z,6.44
2023-05-19T03:12:21.847Z,6.01
2023-05-19T03:13:21.808Z,6.26
2023-05-19T03:14:21.863Z,6.49
2023-05-19T03:15:21.859Z,6.26
2023-05-19T03:16:22.782Z,5.63
2023-05-19T03:17:22.047Z,6.12
2023-05-19T03:18:21.985Z,6.84
2023-05-19T03:19:22.131Z,5.44
2023-05-19T03:20:22.044Z,5.77
2023-05-19T03:21:22.083Z,6.06
2023-05-19T03:22:22.162Z,5.99
2023-05-19T03:23:22.198Z,6.69
2023-05-19T03:24:22.229Z,5.91
2023-05-19T03:25:22.297Z,6.27
2023-05-19T03:26:22.294Z,5.74
2023-05-19T03:27:22.387Z,5.77
2023-05-19T03:28:22.410Z,6.20
2023-05-19T03:29:22.389Z,6.04
2023-05-19T03:30:22.508Z,5.91
2023-05-19T03:31:22.380Z,5.90
2023-05-19T03:32:22.454Z,6.00
2023-05-19T03:33:22.612Z,6.07
2023-05-19T03:34:22.410Z,5.79
2023-05-19T03:35:22.453Z,5.97
2023-05-19T03:36:22.448Z,6.26
2023-05-19T03:37:22.457Z,6.88
2023-05-19T03:38:22.534Z,5.87
2023-05-19T03:39:22.558Z,6.31
2023-05-19T03:40:22.593Z,6.36
2023-05-19T03:41:22.653Z,6.81
2023-05-19T03:42:22.677Z,5.80
2023-05-19T03:43:22.695Z,5.57
2023-05-19T03:44:22.753Z,5.90
2023-05-19T03:45:22.722Z,6.26
2023-05-19T03:46:22.846Z,6.14
2023-05-19T03:47:22.767Z,6.04
2023-05-19T03:48:22.752Z,6.46
2023-05-19T03:49:22.771Z,6.38
2023-05-19T03:50:22.777Z,6.34
2023-05-19T03:51:22.835Z,6.73
2023-05-19T03:52:22.881Z,5.71
2023-05-19T03:53:22.974Z,6.15
2023-05-19T03:54:23.027Z,6.80
2023-05-19T03:55:23.095Z,6.52
2023-05-19T03:56:23.038Z,6.33
2023-05-19T03:57:23.090Z,6.75
2023-05-19T03:58:23.100Z,6.68
2023-05-19T03:59:23.095Z,7.38
2023-05-19T04:00:23.124Z,6.74
2023-05-19T04:01:23.106Z,6.19
2023-05-19T04:02:23.216Z,6.86
2023-05-19T04:03:23.268Z,6.52
2023-05-19T04:04:23.247Z,6.16
2023-05-19T04:05:23.286Z,6.45
2023-05-19T04:06:23.300Z,6.11
2023-05-19T04:07:23.395Z,6.62
2023-05-19T04:08:23.437Z,6.31
2023-05-19T04:09:23.506Z,6.39
2023-05-19T04:10:23.571Z,7.03
2023-05-19T04:11:23.598Z,6.47
2023-05-19T04:12:23.662Z,6.72
2023-05-19T04:13:23.742Z,6.54
2023-05-19T04:14:23.806Z,6.53
2023-05-19T04:15:23.850Z,6.82
2023-05-19T04:16:24.051Z,6.37
2023-05-19T04:17:23.982Z,6.57
2023-05-19T04:18:24.474Z,6.55
2023-05-19T04:19:24.174Z,6.39
2023-05-19T04:20:24.189Z,6.65
2023-05-19T04:21:24.227Z,6.26
2023-05-19T04:22:24.267Z,6.17
2023-05-19T04:23:24.307Z,6.23
2023-05-19T04:24:24.375Z,6.16
2023-05-19T04:25:24.438Z,6.88
2023-05-19T04:26:25.256Z,6.52
2023-05-19T04:27:24.494Z,6.35
2023-05-19T04:28:24.518Z,6.23
2023-05-19T04:29:24.529Z,6.49
2023-05-19T04:30:24.546Z,6.41
2023-05-19T04:31:25.278Z,9.08
2023-05-19T04:32:24.593Z,9.56
2023-05-19T04:33:24.599Z,9.97
2023-05-19T04:34:24.580Z,6.45
2023-05-19T04:35:24.634Z,6.05
2023-05-19T04:36:24.663Z,6.92
2023-05-19T04:37:24.662Z,6.30
2023-05-19T04:38:24.712Z,6.27
2023-05-19T04:39:24.733Z,6.67
2023-05-19T04:40:24.743Z,6.45
2023-05-19T04:41:24.780Z,6.61
2023-05-19T04:42:24.842Z,6.39
2023-05-19T04:43:24.794Z,5.87
2023-05-19T04:44:24.792Z,5.95
2023-05-19T04:45:24.814Z,6.47
2023-05-19T04:46:24.860Z,6.27
2023-05-19T04:47:24.866Z,6.42
2023-05-19T04:48:24.847Z,6.79
2023-05-19T04:49:24.862Z,7.30
2023-05-19T04:50:24.924Z,6.90
2023-05-19T04:51:24.933Z,6.53
2023-05-19T04:52:24.964Z,7.09
2023-05-19T04:53:24.948Z,6.47
2023-05-19T04:54:25.004Z,6.77
2023-05-19T04:55:25.130Z,7.13
2023-05-19T04:56:25.080Z,6.15
2023-05-19T04:57:25.076Z,6.80
2023-05-19T04:58:25.091Z,6.47
2023-05-19T04:59:25.132Z,6.43
2023-05-19T05:01:52.915Z,6.08
2023-05-19T05:02:45.179Z,6.98
2023-05-19T05:03:45.263Z,6.43
2023-05-19T05:04:45.152Z,6.81
2023-05-19T05:05:45.168Z,6.73
2023-05-19T05:06:45.119Z,7.12
2023-05-19T05:07:45.104Z,6.84
2023-05-19T05:08:45.160Z,6.36
2023-05-19T05:09:45.165Z,6.96
2023-05-19T05:10:45.141Z,6.81
2023-05-19T05:11:45.246Z,6.48
2023-05-19T05:12:45.112Z,6.89
2023-05-19T05:13:45.102Z,7.46
2023-05-19T05:14:45.121Z,6.77
2023-05-19T05:15:45.142Z,7.16
2023-05-19T05:16:45.212Z,6.66
2023-05-19T05:17:45.141Z,6.71
2023-05-19T05:18:45.218Z,6.81
2023-05-19T05:19:45.034Z,7.04
2023-05-19T05:20:45.038Z,7.18
2023-05-19T05:21:45.082Z,6.77
2023-05-19T05:22:45.094Z,6.73
2023-05-19T05:23:45.122Z,6.48
2023-05-19T05:24:45.161Z,6.04
2023-05-19T05:25:45.241Z,7.07
2023-05-19T05:26:45.291Z,6.84
2023-05-19T05:27:45.321Z,6.99
2023-05-19T05:28:45.412Z,6.87
2023-05-19T05:29:45.452Z,6.82
2023-05-19T05:30:45.433Z,6.95
2023-05-19T05:31:45.470Z,7.16
2023-05-19T05:32:45.587Z,7.61
2023-05-19T05:33:45.587Z,6.63
2023-05-19T05:34:45.507Z,7.77
2023-05-19T05:35:45.555Z,6.73
2023-05-19T05:36:45.596Z,7.03
2023-05-19T05:37:45.709Z,6.47
2023-05-19T05:38:45.708Z,7.31
2023-05-19T05:39:45.782Z,7.48
2023-05-19T05:40:45.789Z,8.50
2023-05-19T05:41:45.843Z,6.71
2023-05-19T05:42:45.848Z,6.96
2023-05-19T05:43:45.855Z,7.00
2023-05-19T05:44:45.874Z,6.80
2023-05-19T05:45:46.025Z,7.46
2023-05-19T05:46:54.766Z,7.87
2023-05-19T05:47:46.381Z,7.95
2023-05-19T05:48:46.110Z,8.87
2023-05-19T05:49:46.054Z,8.85
2023-05-19T05:50:46.063Z,7.81
2023-05-19T05:51:58.001Z,7.82
2023-05-19T05:52:46.072Z,7.39
2023-05-19T05:53:46.075Z,7.19
2023-05-19T05:54:45.988Z,7.03
2023-05-19T05:55:46.013Z,7.73
2023-05-19T05:56:46.026Z,7.45
2023-05-19T05:57:46.028Z,7.29
2023-05-19T05:58:46.109Z,7.40
2023-05-19T05:59:45.953Z,7.25
2023-05-19T06:00:45.956Z,7.87
2023-05-19T06:01:46.035Z,7.77
2023-05-19T06:02:46.057Z,7.10
2023-05-19T06:03:46.081Z,7.90
2023-05-19T06:04:46.076Z,7.41
2023-05-19T06:05:46.907Z,7.29
2023-05-19T06:06:46.079Z,9.31
2023-05-19T06:07:45.976Z,8.26
2023-05-19T06:08:45.943Z,7.69
2023-05-19T06:09:45.972Z,7.58
2023-05-19T06:10:47.338Z,8.61
2023-05-19T06:11:46.008Z,7.53
2023-05-19T06:12:45.890Z,8.51
2023-05-19T06:13:46.034Z,7.69
2023-05-19T06:14:46.048Z,7.71
2023-05-19T06:15:46.061Z,7.87
2023-05-19T06:16:46.018Z,7.77
2023-05-19T06:17:45.984Z,7.61
2023-05-19T06:18:46.604Z,8.16
2023-05-19T06:19:45.914Z,7.65
2023-05-19T06:20:45.854Z,7.78
2023-05-19T06:21:45.884Z,7.43
2023-05-19T06:22:45.988Z,7.79
2023-05-19T06:23:45.803Z,7.89
2023-05-19T06:24:45.932Z,9.18
2023-05-19T06:25:45.891Z,8.42
2023-05-19T06:26:46.435Z,7.80
2023-05-19T06:27:46.075Z,8.22
2023-05-19T06:28:46.133Z,7.88
2023-05-19T06:29:46.109Z,8.37
2023-05-19T06:30:46.239Z,7.99
2023-05-19T06:31:46.548Z,8.73
2023-05-19T06:32:46.344Z,8.50
2023-05-19T06:33:48.281Z,7.94
2023-05-19T06:34:46.501Z,7.66
2023-05-19T06:35:46.505Z,7.77
2023-05-19T06:36:46.610Z,7.58
2023-05-19T06:37:46.610Z,7.62
2023-05-19T06:38:46.625Z,8.06
2023-05-19T06:39:46.622Z,7.63
2023-05-19T06:40:47.585Z,7.65
2023-05-19T06:41:46.558Z,8.25
2023-05-19T06:42:46.570Z,8.29
2023-05-19T06:43:46.587Z,7.62
2023-05-19T06:44:46.562Z,7.16
2023-05-19T06:45:46.592Z,8.95
2023-05-19T06:46:46.611Z,8.06
2023-05-19T06:47:47.468Z,7.42
2023-05-19T06:48:46.652Z,8.90
2023-05-19T06:49:46.582Z,7.76
2023-05-19T06:50:47.405Z,6.95
2023-05-19T06:51:48.125Z,7.44
2023-05-19T06:52:46.474Z,7.25
2023-05-19T06:53:46.488Z,7.34
2023-05-19T06:54:46.425Z,7.16
2023-05-19T06:55:58.112Z,6.79
2023-05-19T06:56:49.105Z,7.84
2023-05-19T06:57:47.882Z,7.62
2023-05-19T06:58:46.580Z,6.96
2023-05-19T06:59:46.551Z,6.94
2023-05-19T07:00:46.357Z,7.40
2023-05-19T07:01:46.466Z,7.60
2023-05-19T07:02:46.583Z,7.26
2023-05-19T07:03:46.544Z,7.47
2023-05-19T07:04:46.482Z,7.47
2023-05-19T07:05:46.488Z,6.90
2023-05-19T07:06:46.422Z,7.43
2023-05-19T07:07:46.487Z,6.65
2023-05-19T07:08:46.302Z,6.47
2023-05-19T07:09:46.417Z,6.75
2023-05-19T07:10:46.423Z,6.46
2023-05-19T07:11:46.404Z,6.77
2023-05-19T07:12:46.427Z,7.31
2023-05-19T07:13:46.423Z,7.42
2023-05-19T07:14:46.344Z,6.91
2023-05-19T07:15:46.262Z,6.34
2023-05-19T07:16:46.661Z,6.44
2023-05-19T07:17:46.423Z,7.01
2023-05-19T07:18:46.299Z,6.44
2023-05-19T07:19:46.256Z,7.13
2023-05-19T07:20:46.270Z,6.84
2023-05-19T07:21:46.877Z,7.20
2023-05-19T07:22:46.533Z,7.02
2023-05-19T07:23:46.410Z,6.43
2023-05-19T07:24:46.403Z,6.33
2023-05-19T07:25:46.427Z,6.07
2023-05-19T07:26:46.427Z,6.45
2023-05-19T07:27:46.494Z,5.96
2023-05-19T07:28:46.421Z,5.89
2023-05-19T07:29:46.343Z,6.49
2023-05-19T07:30:46.391Z,5.61
2023-05-19T07:31:46.382Z,5.48
2023-05-19T07:32:46.396Z,5.28
2023-05-19T07:33:46.392Z,5.29
2023-05-19T07:34:46.469Z,6.77
2023-05-19T07:35:46.361Z,5.52
2023-05-19T07:36:46.376Z,6.38
2023-05-19T07:37:46.319Z,5.90
2023-05-19T07:38:46.393Z,6.25
2023-05-19T07:39:46.380Z,7.36
2023-05-19T07:40:46.348Z,6.64
2023-05-19T07:41:46.355Z,6.76
2023-05-19T07:42:46.354Z,5.54
2023-05-19T07:43:46.359Z,6.70
2023-05-19T07:44:46.356Z,5.85
2023-05-19T07:45:46.442Z,6.20
2023-05-19T07:46:46.380Z,6.23
2023-05-19T07:47:46.408Z,5.93
2023-05-19T07:48:46.331Z,5.83
2023-05-19T07:49:46.337Z,5.87
2023-05-19T07:50:46.363Z,5.76
2023-05-19T07:51:46.302Z,6.36
2023-05-19T07:52:46.933Z,6.96
2023-05-19T07:53:46.207Z,6.20
2023-05-19T07:54:46.217Z,6.26
2023-05-19T07:55:46.210Z,6.91
2023-05-19T07:56:46.239Z,6.58
2023-05-19T07:57:46.294Z,6.10
2023-05-19T07:58:46.240Z,6.68
2023-05-19T07:59:46.242Z,5.84
2023-05-19T08:00:46.341Z,6.27
2023-05-19T08:01:46.569Z,6.42
2023-05-19T08:02:46.237Z,6.62
2023-05-19T08:03:46.239Z,6.84
2023-05-19T08:04:46.289Z,6.22
2023-05-19T08:05:46.894Z,7.37
2023-05-19T08:06:46.260Z,6.71
2023-05-19T08:07:46.190Z,6.90
2023-05-19T08:08:46.204Z,6.20
2023-05-19T08:09:46.218Z,6.56
2023-05-19T08:10:46.919Z,6.65
2023-05-19T08:11:46.274Z,6.47
2023-05-19T08:12:46.131Z,6.29
2023-05-19T08:13:46.108Z,6.18
2023-05-19T08:14:46.155Z,5.85
2023-05-19T08:15:46.091Z,6.33
2023-05-19T08:16:46.134Z,5.60
2023-05-19T08:17:46.118Z,6.82
2023-05-19T08:18:46.176Z,6.03
2023-05-19T08:19:46.116Z,6.74
2023-05-19T08:20:46.266Z,6.07
2023-05-19T08:21:46.777Z,6.37
2023-05-19T08:22:46.095Z,6.12
2023-05-19T08:23:46.185Z,6.11
2023-05-19T08:24:46.119Z,5.77
2023-05-19T08:25:46.053Z,6.64
2023-05-19T08:26:46.185Z,6.14
2023-05-19T08:27:46.109Z,6.89
2023-05-19T08:28:46.096Z,6.27
2023-05-19T08:29:46.130Z,6.38
2023-05-19T08:30:46.050Z,6.08
2023-05-19T08:31:46.102Z,7.00
2023-05-19T08:32:46.031Z,6.83
2023-05-19T08:33:46.061Z,5.98
2023-05-19T08:34:46.059Z,6.90
2023-05-19T08:35:45.983Z,5.49
2023-05-19T08:36:46.079Z,5.86
2023-05-19T08:37:47.030Z,5.73
2023-05-19T08:38:45.921Z,6.29
2023-05-19T08:39:45.993Z,6.52
2023-05-19T08:40:45.937Z,6.07
2023-05-19T08:41:46.045Z,6.42
2023-05-19T08:42:45.953Z,6.22
2023-05-19T08:43:45.991Z,6.18
2023-05-19T08:44:45.973Z,5.55
2023-05-19T08:45:46.093Z,6.22
2023-05-19T08:46:46.036Z,5.89
2023-05-19T08:47:46.005Z,6.11
2023-05-19T08:48:45.867Z,5.09
2023-05-19T08:49:45.966Z,5.10
2023-05-19T08:50:45.849Z,5.81
2023-05-19T08:51:46.406Z,5.84
2023-05-19T08:52:48.872Z,5.80
2023-05-19T08:53:45.998Z,6.34
2023-05-19T08:54:45.896Z,6.05
2023-05-19T08:55:45.813Z,6.07
2023-05-19T08:56:46.012Z,5.62
2023-05-19T08:57:45.848Z,5.88
2023-05-19T08:58:45.855Z,6.09
2023-05-19T08:59:45.915Z,6.20
2023-05-19T09:00:45.879Z,6.24
2023-05-19T09:01:45.954Z,5.68
2023-05-19T09:02:55.146Z,6.10
2023-05-19T09:03:46.888Z,6.29
2023-05-19T09:04:45.803Z,5.56
2023-05-19T09:05:45.829Z,6.44
2023-05-19T09:06:45.993Z,5.42
2023-05-19T09:07:45.986Z,6.41
2023-05-19T09:08:45.880Z,6.66
2023-05-19T09:09:45.756Z,6.22
2023-05-19T09:10:46.289Z,6.18
2023-05-19T09:11:46.449Z,6.44
2023-05-19T09:12:46.008Z,6.37
2023-05-19T09:13:45.796Z,6.00
2023-05-19T09:14:45.754Z,6.13
2023-05-19T09:15:45.831Z,5.31
2023-05-19T09:16:45.890Z,5.68
2023-05-19T09:17:45.973Z,5.53
2023-05-19T09:18:46.022Z,5.47
2023-05-19T09:19:45.947Z,5.64
2023-05-19T09:20:46.005Z,5.61
2023-05-19T09:21:45.989Z,5.61
2023-05-19T09:22:45.990Z,6.17
2023-05-19T09:23:46.069Z,5.57
2023-05-19T09:24:46.097Z,6.00
2023-05-19T09:25:46.222Z,5.66
2023-05-19T09:26:46.228Z,5.89
2023-05-19T09:27:46.224Z,5.44
2023-05-19T09:28:46.318Z,5.68
2023-05-19T09:29:46.344Z,5.57
2023-05-19T09:30:46.398Z,4.91
2023-05-19T09:31:46.513Z,5.89
2023-05-19T09:32:47.567Z,5.69
2023-05-19T09:33:46.476Z,5.14
2023-05-19T09:34:46.486Z,5.64
2023-05-19T09:35:46.400Z,5.29
2023-05-19T09:36:46.388Z,5.32
2023-05-19T09:37:46.382Z,5.19
2023-05-19T09:38:46.393Z,5.61
2023-05-19T09:39:46.394Z,5.51
2023-05-19T09:40:46.395Z,5.50
2023-05-19T09:41:46.919Z,4.99
2023-05-19T09:42:46.327Z,5.40
2023-05-19T09:43:46.348Z,4.78
2023-05-19T09:44:46.415Z,5.61
2023-05-19T09:45:46.467Z,5.53
2023-05-19T09:46:46.532Z,5.28
2023-05-19T09:47:46.579Z,5.04
2023-05-19T09:48:46.564Z,5.44
2023-05-19T09:49:46.595Z,5.68
2023-05-19T09:50:46.601Z,5.56
2023-05-19T09:51:46.707Z,5.94
2023-05-19T09:52:46.698Z,5.49
2023-05-19T09:53:46.709Z,5.73
2023-05-19T09:54:46.718Z,6.40
2023-05-19T09:55:46.818Z,5.22
2023-05-19T09:56:46.830Z,5.97
2023-05-19T09:57:47.056Z,4.95
2023-05-19T09:58:46.863Z,5.25
2023-05-19T09:59:46.937Z,5.86
2023-05-19T10:00:46.966Z,5.48
2023-05-19T10:01:47.125Z,5.85
2023-05-19T10:02:47.499Z,5.60
2023-05-19T10:03:47.093Z,5.95
2023-05-19T10:04:47.087Z,6.18
2023-05-19T10:05:47.098Z,5.31
2023-05-19T10:06:47.110Z,4.73
2023-05-19T10:07:47.212Z,5.19
2023-05-19T10:08:47.207Z,4.83
2023-05-19T10:09:47.227Z,5.17
2023-05-19T10:10:47.238Z,5.16
2023-05-19T10:11:47.259Z,4.60
2023-05-19T10:12:47.341Z,7.11
2023-05-19T10:13:47.355Z,5.61
2023-05-19T10:14:47.349Z,6.08
2023-05-19T10:15:58.113Z,6.49
2023-05-19T10:16:47.403Z,5.06
2023-05-19T10:17:47.412Z,4.75
2023-05-19T10:18:47.425Z,4.94
2023-05-19T10:19:47.345Z,4.62
2023-05-19T10:20:47.326Z,5.24
2023-05-19T10:21:47.296Z,4.95
2023-05-19T10:22:47.326Z,4.81
2023-05-19T10:23:47.334Z,5.73
2023-05-19T10:24:47.340Z,5.01
2023-05-19T10:25:47.322Z,5.17
2023-05-19T10:26:47.341Z,4.76
2023-05-19T10:27:47.334Z,5.12
2023-05-19T10:28:47.355Z,5.55
2023-05-19T10:29:47.370Z,4.71
2023-05-19T10:30:47.401Z,4.93
2023-05-19T10:31:47.485Z,4.93
2023-05-19T10:32:47.588Z,5.41
2023-05-19T10:33:47.490Z,9.37
2023-05-19T10:34:47.512Z,5.59
2023-05-19T10:35:47.491Z,5.95
2023-05-19T10:36:47.601Z,5.34
2023-05-19T10:37:47.684Z,5.37
2023-05-19T10:38:47.670Z,5.31
2023-05-19T10:39:47.636Z,5.23
2023-05-19T10:40:47.668Z,5.86
2023-05-19T10:41:47.883Z,6.36
2023-05-19T10:42:47.724Z,5.11
2023-05-19T10:43:47.688Z,6.54
2023-05-19T10:44:47.664Z,6.33
2023-05-19T10:45:47.677Z,4.99
2023-05-19T10:46:47.725Z,5.15
2023-05-19T10:47:47.746Z,5.54
2023-05-19T10:48:47.719Z,5.56
2023-05-19T10:49:47.619Z,5.18
2023-05-19T10:50:47.637Z,5.92
2023-05-19T10:51:47.624Z,5.75
2023-05-19T10:52:47.724Z,6.42
2023-05-19T10:53:47.749Z,6.23
2023-05-19T10:54:47.726Z,5.26
2023-05-19T10:55:47.749Z,8.09
2023-05-19T10:56:47.773Z,8.85
2023-05-19T10:57:47.976Z,7.13
2023-05-19T10:58:47.885Z,6.53
2023-05-19T10:59:47.974Z,6.47
2023-05-19T11:00:47.999Z,5.74
2023-05-19T11:01:48.027Z,6.23
2023-05-19T11:02:48.139Z,5.78
2023-05-19T11:03:48.170Z,6.09
2023-05-19T11:04:50.270Z,5.78
2023-05-19T11:05:48.117Z,5.56
2023-05-19T11:06:48.126Z,6.06
2023-05-19T11:07:48.113Z,6.12
2023-05-19T11:08:48.047Z,5.04
2023-05-19T11:09:48.066Z,5.24
2023-05-19T11:10:48.177Z,5.48
2023-05-19T11:11:48.105Z,5.27
2023-05-19T11:12:48.079Z,5.84
2023-05-19T11:13:48.074Z,5.49
2023-05-19T11:14:48.088Z,5.15
2023-05-19T11:15:48.009Z,5.08
2023-05-19T11:16:48.082Z,5.67
2023-05-19T11:17:48.123Z,5.78
2023-05-19T11:18:48.041Z,5.09
2023-05-19T11:19:48.033Z,5.86
2023-05-19T11:20:48.054Z,5.38
2023-05-19T11:21:48.067Z,5.77
2023-05-19T11:22:48.033Z,5.37
2023-05-19T11:23:48.031Z,5.46
2023-05-19T11:24:47.961Z,5.42
2023-05-19T11:25:48.043Z,5.89
2023-05-19T11:26:47.978Z,6.44
2023-05-19T11:27:47.972Z,5.68
2023-05-19T11:28:47.981Z,5.05
2023-05-19T11:29:47.981Z,6.15
2023-05-19T11:30:47.893Z,5.29
2023-05-19T11:31:47.959Z,5.20
2023-05-19T11:32:48.055Z,5.67
2023-05-19T11:33:47.916Z,5.68
2023-05-19T11:34:48.003Z,6.09
2023-05-19T11:35:47.931Z,4.93
2023-05-19T11:36:47.932Z,4.79
2023-05-19T11:37:47.948Z,5.70
2023-05-19T11:38:47.846Z,4.91
2023-05-19T11:39:47.975Z,5.67
2023-05-19T11:40:47.833Z,5.21
2023-05-19T11:41:47.890Z,4.32
2023-05-19T11:42:47.900Z,5.26
2023-05-19T11:43:47.874Z,4.97
2023-05-19T11:44:47.914Z,4.95
2023-05-19T11:45:47.949Z,4.96
2023-05-19T11:46:48.095Z,4.79
2023-05-19T11:48:01.249Z,5.30
2023-05-19T11:48:48.835Z,4.58
2023-05-19T11:49:47.827Z,5.08
2023-05-19T11:50:47.831Z,5.24
2023-05-19T11:51:47.850Z,4.98
2023-05-19T11:52:47.845Z,5.13
2023-05-19T11:53:47.835Z,5.25
2023-05-19T11:54:47.754Z,4.91
2023-05-19T11:55:48.095Z,4.93
2023-05-19T11:56:47.771Z,4.36
2023-05-19T11:58:02.583Z,4.99
2023-05-19T11:58:48.816Z,4.90
2023-05-19T11:59:47.774Z,4.72
2023-05-19T12:00:48.182Z,4.95
2023-05-19T12:01:47.689Z,4.72
2023-05-19T12:02:47.816Z,5.07
2023-05-19T12:03:47.898Z,4.31
2023-05-19T12:04:47.712Z,4.48
2023-05-19T12:05:48.239Z,4.40
2023-05-19T12:06:47.770Z,4.54
2023-05-19T12:07:47.734Z,5.04
2023-05-19T12:08:47.726Z,4.28
2023-05-19T12:09:47.810Z,4.62
2023-05-19T12:10:47.853Z,4.62
2023-05-19T12:11:47.861Z,4.78
2023-05-19T12:12:47.886Z,4.67
2023-05-19T12:13:47.975Z,5.23
2023-05-19T12:14:47.974Z,4.27
2023-05-19T12:15:48.045Z,4.32
2023-05-19T12:16:48.176Z,4.68
2023-05-19T12:17:48.230Z,4.52
2023-05-19T12:18:48.228Z,4.28
2023-05-19T12:19:48.231Z,3.42
2023-05-19T12:20:48.249Z,3.35
2023-05-19T12:21:48.282Z,3.33
2023-05-19T12:22:48.351Z,3.04
2023-05-19T12:23:48.452Z,3.69
2023-05-19T12:24:48.457Z,3.18
2023-05-19T12:25:48.478Z,3.66
2023-05-19T12:26:48.485Z,3.65
2023-05-19T12:27:48.537Z,3.48
2023-05-19T12:28:48.502Z,3.98
2023-05-19T12:29:48.593Z,3.32
2023-05-19T12:30:48.601Z,3.44
2023-05-19T12:31:48.622Z,3.36
2023-05-19T12:32:48.669Z,3.63
2023-05-19T12:33:48.728Z,3.19
2023-05-19T12:34:48.682Z,3.54
2023-05-19T12:35:48.744Z,3.55
2023-05-19T12:36:48.801Z,3.43
2023-05-19T12:37:48.862Z,3.33
2023-05-19T12:38:48.863Z,2.78
2023-05-19T12:39:48.830Z,3.27
2023-05-19T12:40:48.917Z,2.85
2023-05-19T12:41:48.887Z,3.50
2023-05-19T12:42:48.965Z,3.35
2023-05-19T12:43:48.917Z,2.35
2023-05-19T12:44:49.025Z,2.64
2023-05-19T12:45:48.987Z,2.74
2023-05-19T12:46:49.129Z,3.74
2023-05-19T12:47:49.295Z,3.02
2023-05-19T12:48:49.152Z,3.08
2023-05-19T12:49:49.159Z,3.11
2023-05-19T12:50:49.261Z,2.87
2023-05-19T12:51:49.275Z,3.00
2023-05-19T12:52:49.367Z,2.89
2023-05-19T12:53:49.391Z,2.62
2023-05-19T12:54:49.389Z,3.02
2023-05-19T12:55:49.401Z,3.13
2023-05-19T12:56:49.412Z,3.01
2023-05-19T12:57:50.558Z,2.85
2023-05-19T12:58:49.533Z,3.04
2023-05-19T12:59:49.613Z,2.84
2023-05-19T13:00:49.750Z,2.62
2023-05-19T13:01:49.582Z,2.95
2023-05-19T13:02:49.562Z,3.02
2023-05-19T13:03:49.785Z,3.05
2023-05-19T13:04:49.664Z,2.51
2023-05-19T13:05:49.711Z,2.95
2023-05-19T13:06:49.788Z,2.70
2023-05-19T13:07:49.803Z,2.63
2023-05-19T13:08:49.845Z,3.26
2023-05-19T13:09:49.808Z,3.27
2023-05-19T13:10:49.889Z,2.90
2023-05-19T13:11:49.885Z,2.81
2023-05-19T13:12:49.973Z,2.79
2023-05-19T13:13:49.931Z,2.64
2023-05-19T13:14:49.953Z,2.74
2023-05-19T13:15:50.055Z,2.21
2023-05-19T13:16:50.132Z,3.34
2023-05-19T13:17:50.934Z,3.02
2023-05-19T13:18:50.144Z,2.54
2023-05-19T13:19:50.197Z,2.84